sensor_id;sensor_type;location;lat;lon;timestamp;pressure;altitude;pressure_sealevel;temperature;humidity
1736;BME280;865;53.672;10.250;2023-03-25T08:39:44;99515.78;;;8.15;100.00
1736;BME280;865;53.672;10.250;2023-03-25T08:42:12;99520.78;;;8.21;100.00
1736;BME280;865;53.672;10.250;2023-03-25T08:44:38;99526.72;;;8.25;100.00
1736;BME280;865;53.672;10.250;2023-03-25T08:47:05;99524.22;;;8.22;100.00
1736;BME280;865;53.672;10.250;2023-03-25T08:49:31;99513.00;;;8.20;100.00
1736;BME280;865;53.672;10.250;2023-03-25T08:51:58;99512.13;;;8.21;100.00
1736;BME280;865;53.672;10.250;2023-03-25T08:54:26;99501.47;;;8.30;100.00
1736;BME280;865;53.672;10.250;2023-03-25T08:56:53;99508.66;;;8.20;100.00
1736;BME280;865;53.672;10.250;2023-03-25T08:59:20;99500.09;;;8.18;100.00
1736;BME280;865;53.672;10.250;2023-03-25T09:01:47;99512.91;;;8.25;100.00
1736;BME280;865;53.672;10.250;2023-03-25T09:04:13;99504.00;;;8.32;100.00
1736;BME280;865;53.672;10.250;2023-03-25T09:06:39;99497.69;;;8.42;100.00
1736;BME280;865;53.672;10.250;2023-03-25T09:09:26;99508.75;;;8.47;100.00
1736;BME280;865;53.672;10.250;2023-03-25T09:11:52;99505.50;;;8.40;100.00
1736;BME280;865;53.672;10.250;2023-03-25T09:14:19;99517.94;;;8.29;100.00
1736;BME280;865;53.672;10.250;2023-03-25T09:16:46;99521.06;;;8.12;100.00
1736;BME280;865;53.672;10.250;2023-03-25T09:19:12;99522.88;;;8.09;100.00
1736;BME280;865;53.672;10.250;2023-03-25T09:21:38;99525.44;;;8.10;100.00
1736;BME280;865;53.672;10.250;2023-03-25T09:24:06;99535.28;;;7.99;100.00
1736;BME280;865;53.672;10.250;2023-03-25T09:26:33;99543.59;;;7.81;100.00
1736;BME280;865;53.672;10.250;2023-03-25T09:28:59;99559.69;;;7.61;100.00
1736;BME280;865;53.672;10.250;2023-03-25T09:31:26;99555.56;;;7.53;100.00
1736;BME280;865;53.672;10.250;2023-03-25T09:33:52;99559.88;;;7.20;100.00
1736;BME280;865;53.672;10.250;2023-03-25T09:36:18;99560.03;;;7.14;100.00
1736;BME280;865;53.672;10.250;2023-03-25T09:38:45;99563.66;;;7.07;100.00
1736;BME280;865;53.672;10.250;2023-03-25T09:44:21;99559.16;;;6.79;100.00
1736;BME280;865;53.672;10.250;2023-03-25T09:46:52;99558.78;;;6.95;100.00
1736;BME280;865;53.672;10.250;2023-03-25T09:49:23;99555.41;;;6.91;100.00
1736;BME280;865;53.672;10.250;2023-03-25T09:51:53;99548.47;;;6.92;100.00
1736;BME280;865;53.672;10.250;2023-03-25T09:54:25;99549.31;;;6.94;100.00
1736;BME280;865;53.672;10.250;2023-03-25T09:56:56;99548.31;;;6.99;100.00
1736;BME280;865;53.672;10.250;2023-03-25T09:59:53;99551.28;;;7.18;100.00
1736;BME280;865;53.672;10.250;2023-03-25T10:13:11;99544.81;;;7.35;100.00
1736;BME280;865;53.672;10.250;2023-03-25T10:15:46;99538.84;;;7.31;100.00
1736;BME280;865;53.672;10.250;2023-03-25T10:18:28;99539.66;;;7.33;100.00
1736;BME280;865;53.672;10.250;2023-03-25T10:21:07;99524.03;;;7.36;100.00
1736;BME280;865;53.672;10.250;2023-03-25T10:23:45;99531.69;;;7.41;100.00
1736;BME280;865;53.672;10.250;2023-03-25T10:26:27;99529.03;;;7.42;100.00
1736;BME280;865;53.672;10.250;2023-03-25T10:29:01;99534.06;;;7.48;100.00
1736;BME280;865;53.672;10.250;2023-03-25T10:31:34;99529.47;;;7.58;100.00
1736;BME280;865;53.672;10.250;2023-03-25T10:34:24;99530.88;;;7.71;100.00
1736;BME280;865;53.672;10.250;2023-03-25T10:36:55;99524.88;;;7.99;100.00
1736;BME280;865;53.672;10.250;2023-03-25T10:39:30;99536.94;;;8.31;100.00
1736;BME280;865;53.672;10.250;2023-03-25T10:44:52;99520.63;;;8.26;100.00
1736;BME280;865;53.672;10.250;2023-03-25T10:47:23;99528.09;;;8.66;100.00
1736;BME280;865;53.672;10.250;2023-03-25T10:49:53;99526.34;;;8.67;100.00
1736;BME280;865;53.672;10.250;2023-03-25T10:52:19;99520.81;;;8.78;100.00
1736;BME280;865;53.672;10.250;2023-03-25T10:54:50;99517.84;;;8.88;100.00
1736;BME280;865;53.672;10.250;2023-03-25T10:57:22;99522.44;;;8.80;100.00
1736;BME280;865;53.672;10.250;2023-03-25T11:00:05;99509.19;;;9.15;100.00
1736;BME280;865;53.672;10.250;2023-03-25T11:02:37;99515.66;;;9.28;100.00
1736;BME280;865;53.672;10.250;2023-03-25T11:05:06;99509.09;;;9.18;100.00
1736;BME280;865;53.672;10.250;2023-03-25T11:07:38;99506.25;;;8.72;100.00
1736;BME280;865;53.672;10.250;2023-03-25T11:10:27;99508.50;;;8.83;100.00
1736;BME280;865;53.672;10.250;2023-03-25T11:12:55;99506.69;;;8.85;100.00
1736;BME280;865;53.672;10.250;2023-03-25T11:15:29;99501.09;;;8.97;100.00
1736;BME280;865;53.672;10.250;2023-03-25T11:17:59;99495.69;;;9.03;100.00
1736;BME280;865;53.672;10.250;2023-03-25T11:20:30;99498.97;;;9.08;100.00
1736;BME280;865;53.672;10.250;2023-03-25T11:23:05;99497.56;;;8.98;100.00
1736;BME280;865;53.672;10.250;2023-03-25T11:25:37;99503.44;;;8.78;100.00
1736;BME280;865;53.672;10.250;2023-03-25T11:28:16;99505.63;;;8.64;100.00
1736;BME280;865;53.672;10.250;2023-03-25T11:31:07;99505.38;;;8.45;100.00
1736;BME280;865;53.672;10.250;2023-03-25T11:33:35;99519.59;;;8.32;100.00
1736;BME280;865;53.672;10.250;2023-03-25T11:36:27;99521.16;;;8.09;100.00
1736;BME280;865;53.672;10.250;2023-03-25T11:39:00;99556.03;;;7.99;100.00
1736;BME280;865;53.672;10.250;2023-03-25T11:41:31;99550.88;;;7.68;100.00
1736;BME280;865;53.672;10.250;2023-03-25T11:44:00;99564.25;;;7.52;100.00
1736;BME280;865;53.672;10.250;2023-03-25T11:46:27;99562.19;;;7.31;100.00
1736;BME280;865;53.672;10.250;2023-03-25T11:48:54;99566.47;;;7.34;100.00
1736;BME280;865;53.672;10.250;2023-03-25T11:51:25;99566.28;;;7.40;100.00
1736;BME280;865;53.672;10.250;2023-03-25T11:53:59;99561.41;;;7.29;100.00
1736;BME280;865;53.672;10.250;2023-03-25T11:56:37;99567.94;;;7.44;100.00
1736;BME280;865;53.672;10.250;2023-03-25T11:59:43;99554.56;;;7.59;100.00
1736;BME280;865;53.672;10.250;2023-03-25T12:02:21;99555.41;;;7.91;100.00
1736;BME280;865;53.672;10.250;2023-03-25T12:07:25;99552.69;;;7.95;100.00
1736;BME280;865;53.672;10.250;2023-03-25T12:09:57;99543.16;;;8.26;100.00
1736;BME280;865;53.672;10.250;2023-03-25T12:17:57;99514.88;;;8.46;100.00
1736;BME280;865;53.672;10.250;2023-03-25T12:20:34;99511.88;;;8.58;100.00
1736;BME280;865;53.672;10.250;2023-03-25T12:26:13;99508.84;;;8.99;100.00
1736;BME280;865;53.672;10.250;2023-03-25T12:29:02;99500.03;;;9.03;100.00
1736;BME280;865;53.672;10.250;2023-03-25T12:31:44;99492.19;;;9.04;100.00
1736;BME280;865;53.672;10.250;2023-03-25T12:37:24;99498.69;;;8.91;100.00
1736;BME280;865;53.672;10.250;2023-03-25T12:40:07;99488.41;;;8.88;100.00
1736;BME280;865;53.672;10.250;2023-03-25T12:43:10;99488.47;;;8.86;100.00
1736;BME280;865;53.672;10.250;2023-03-25T12:46:21;99496.41;;;8.82;100.00
1736;BME280;865;53.672;10.250;2023-03-25T12:49:06;99490.84;;;8.93;100.00
1736;BME280;865;53.672;10.250;2023-03-25T12:51:49;99493.19;;;9.00;100.00
1736;BME280;865;53.672;10.250;2023-03-25T12:57:36;99483.41;;;8.82;100.00
1736;BME280;865;53.672;10.250;2023-03-25T13:00:27;99471.25;;;8.82;100.00
1736;BME280;865;53.672;10.250;2023-03-25T13:03:07;99475.69;;;8.79;100.00
1736;BME280;865;53.672;10.250;2023-03-25T13:05:46;99483.94;;;8.65;100.00
1736;BME280;865;53.672;10.250;2023-03-25T13:08:18;99483.44;;;8.54;100.00
1736;BME280;865;53.672;10.250;2023-03-25T13:10:56;99480.97;;;8.49;100.00
1736;BME280;865;53.672;10.250;2023-03-25T13:13:25;99481.31;;;8.38;100.00
1736;BME280;865;53.672;10.250;2023-03-25T13:16:02;99486.66;;;8.32;100.00
1736;BME280;865;53.672;10.250;2023-03-25T13:18:37;99490.28;;;8.27;100.00
1736;BME280;865;53.672;10.250;2023-03-25T13:21:10;99498.19;;;8.23;100.00
1736;BME280;865;53.672;10.250;2023-03-25T13:23:41;99500.00;;;8.21;100.00
1736;BME280;865;53.672;10.250;2023-03-25T13:26:11;99497.25;;;8.26;100.00
1736;BME280;865;53.672;10.250;2023-03-25T13:28:45;99501.22;;;8.10;100.00
1736;BME280;865;53.672;10.250;2023-03-25T13:31:16;99498.72;;;8.05;100.00
1736;BME280;865;53.672;10.250;2023-03-25T13:36:40;99492.97;;;7.95;100.00
1736;BME280;865;53.672;10.250;2023-03-25T13:39:24;99505.47;;;7.83;100.00
1736;BME280;865;53.672;10.250;2023-03-25T13:41:57;99499.38;;;7.84;100.00
1736;BME280;865;53.672;10.250;2023-03-25T13:44:29;99506.34;;;7.82;100.00
1736;BME280;865;53.672;10.250;2023-03-25T13:47:23;99508.22;;;7.76;100.00
1736;BME280;865;53.672;10.250;2023-03-25T13:50:24;99494.19;;;7.82;100.00
1736;BME280;865;53.672;10.250;2023-03-25T13:55:44;99508.63;;;7.92;100.00
1736;BME280;865;53.672;10.250;2023-03-25T13:58:38;99530.44;;;7.87;100.00
1736;BME280;865;53.672;10.250;2023-03-25T14:01:34;99533.28;;;7.78;100.00
1736;BME280;865;53.672;10.250;2023-03-25T14:06:59;99531.50;;;7.80;100.00
1736;BME280;865;53.672;10.250;2023-03-25T14:11:39;99530.34;;;7.59;100.00
1736;BME280;865;53.672;10.250;2023-03-25T14:14:11;99527.09;;;7.50;100.00
1736;BME280;865;53.672;10.250;2023-03-25T14:16:43;99538.06;;;7.62;100.00
1736;BME280;865;53.672;10.250;2023-03-25T14:19:32;99529.22;;;7.67;100.00
1736;BME280;865;53.672;10.250;2023-03-25T14:22:15;99533.22;;;7.79;100.00
1736;BME280;865;53.672;10.250;2023-03-25T14:24:44;99533.75;;;7.92;100.00
1736;BME280;865;53.672;10.250;2023-03-25T14:27:19;99532.47;;;7.75;100.00
1736;BME280;865;53.672;10.250;2023-03-25T14:29:54;99527.75;;;7.59;100.00
1736;BME280;865;53.672;10.250;2023-03-25T14:32:29;99520.91;;;7.56;100.00
1736;BME280;865;53.672;10.250;2023-03-25T14:48:37;99539.38;;;7.11;100.00
1736;BME280;865;53.672;10.250;2023-03-25T14:51:59;99534.03;;;7.17;100.00
1736;BME280;865;53.672;10.250;2023-03-25T14:54:13;99532.06;;;7.25;100.00
1736;BME280;865;53.672;10.250;2023-03-25T14:59:16;99528.13;;;7.45;100.00
1736;BME280;865;53.672;10.250;2023-03-25T15:01:44;99525.19;;;7.57;100.00
1736;BME280;865;53.672;10.250;2023-03-25T15:04:26;99508.53;;;7.64;100.00
1736;BME280;865;53.672;10.250;2023-03-25T15:06:54;99509.00;;;7.80;100.00
1736;BME280;865;53.672;10.250;2023-03-25T15:09:21;99509.47;;;7.93;100.00
1736;BME280;865;53.672;10.250;2023-03-25T15:11:59;99508.50;;;7.97;100.00
1736;BME280;865;53.672;10.250;2023-03-25T15:14:30;99514.50;;;7.99;100.00
1736;BME280;865;53.672;10.250;2023-03-25T15:19:27;99509.47;;;7.94;100.00
1736;BME280;865;53.672;10.250;2023-03-25T15:24:34;99506.41;;;7.80;100.00
1736;BME280;865;53.672;10.250;2023-03-25T15:27:27;99495.28;;;7.75;100.00
1736;BME280;865;53.672;10.250;2023-03-25T15:30:26;99496.47;;;7.63;100.00
1736;BME280;865;53.672;10.250;2023-03-25T15:33:11;99510.84;;;7.75;100.00
1736;BME280;865;53.672;10.250;2023-03-25T15:36:10;99502.06;;;7.81;100.00
1736;BME280;865;53.672;10.250;2023-03-25T15:39:18;99499.56;;;7.76;100.00
1736;BME280;865;53.672;10.250;2023-03-25T15:44:49;99470.94;;;7.79;100.00
1736;BME280;865;53.672;10.250;2023-03-25T15:47:36;99469.41;;;8.02;100.00
1736;BME280;865;53.672;10.250;2023-03-25T15:50:17;99457.44;;;7.97;100.00
1736;BME280;865;53.672;10.250;2023-03-25T15:55:28;99462.03;;;7.88;100.00
1736;BME280;865;53.672;10.250;2023-03-25T15:58:02;99462.66;;;7.96;100.00
1736;BME280;865;53.672;10.250;2023-03-25T16:00:33;99467.84;;;7.96;100.00
1736;BME280;865;53.672;10.250;2023-03-25T16:05:31;99463.47;;;7.98;100.00
1736;BME280;865;53.672;10.250;2023-03-25T16:08:04;99462.66;;;7.96;100.00
1736;BME280;865;53.672;10.250;2023-03-25T16:10:32;99477.47;;;7.92;100.00
1736;BME280;865;53.672;10.250;2023-03-25T16:13:03;99477.19;;;7.73;100.00
1736;BME280;865;53.672;10.250;2023-03-25T16:15:32;99477.31;;;7.67;100.00
1736;BME280;865;53.672;10.250;2023-03-25T16:18:00;99472.31;;;7.61;100.00
1736;BME280;865;53.672;10.250;2023-03-25T16:20:29;99466.19;;;7.64;100.00
1736;BME280;865;53.672;10.250;2023-03-25T16:22:59;99466.88;;;7.70;100.00
1736;BME280;865;53.672;10.250;2023-03-25T16:25:34;99453.81;;;7.73;100.00
1736;BME280;865;53.672;10.250;2023-03-25T16:28:05;99467.00;;;7.66;100.00
1736;BME280;865;53.672;10.250;2023-03-25T16:30:38;99477.31;;;7.67;100.00
1736;BME280;865;53.672;10.250;2023-03-25T16:35:40;99465.41;;;7.62;100.00
1736;BME280;865;53.672;10.250;2023-03-25T16:38:13;99478.47;;;7.59;100.00
1736;BME280;865;53.672;10.250;2023-03-25T16:40:42;99473.13;;;7.63;100.00
1736;BME280;865;53.672;10.250;2023-03-25T16:43:15;99475.72;;;7.63;100.00
1736;BME280;865;53.672;10.250;2023-03-25T16:45:44;99484.50;;;7.59;100.00
1736;BME280;865;53.672;10.250;2023-03-25T16:48:25;99498.69;;;7.46;100.00
1736;BME280;865;53.672;10.250;2023-03-25T16:50:54;99509.63;;;7.24;100.00
1736;BME280;865;53.672;10.250;2023-03-25T16:53:23;99520.09;;;7.21;100.00
1736;BME280;865;53.672;10.250;2023-03-25T16:58:29;99523.53;;;6.88;100.00
1736;BME280;865;53.672;10.250;2023-03-25T17:01:07;99513.53;;;6.72;100.00
1736;BME280;865;53.672;10.250;2023-03-25T17:03:43;99504.75;;;6.78;100.00
1736;BME280;865;53.672;10.250;2023-03-25T17:06:20;99500.53;;;6.74;100.00
1736;BME280;865;53.672;10.250;2023-03-25T17:08:53;99504.13;;;6.68;100.00
1736;BME280;865;53.672;10.250;2023-03-25T17:11:25;99491.38;;;6.60;100.00
1736;BME280;865;53.672;10.250;2023-03-25T17:14:17;99507.75;;;6.61;100.00
1736;BME280;865;53.672;10.250;2023-03-25T17:16:45;99511.13;;;6.63;100.00
1736;BME280;865;53.672;10.250;2023-03-25T17:19:14;99503.72;;;6.48;100.00
1736;BME280;865;53.672;10.250;2023-03-25T17:22:03;99491.75;;;6.42;100.00
1736;BME280;865;53.672;10.250;2023-03-25T17:24:40;99478.94;;;6.37;100.00
1736;BME280;865;53.672;10.250;2023-03-25T17:27:24;99477.28;;;6.33;100.00
1736;BME280;865;53.672;10.250;2023-03-25T17:29:53;99472.97;;;6.34;100.00
1736;BME280;865;53.672;10.250;2023-03-25T17:32:22;99464.25;;;6.38;100.00
1736;BME280;865;53.672;10.250;2023-03-25T17:34:57;99463.41;;;6.36;100.00
1736;BME280;865;53.672;10.250;2023-03-25T17:37:24;99466.00;;;6.37;100.00
1736;BME280;865;53.672;10.250;2023-03-25T17:39:51;99459.06;;;6.38;100.00
1736;BME280;865;53.672;10.250;2023-03-25T17:42:21;99471.25;;;6.34;100.00
1736;BME280;865;53.672;10.250;2023-03-25T17:44:50;99472.09;;;6.35;100.00
1736;BME280;865;53.672;10.250;2023-03-25T17:47:19;99462.66;;;6.32;100.00
1736;BME280;865;53.672;10.250;2023-03-25T17:49:46;99470.47;;;6.29;100.00
1736;BME280;865;53.672;10.250;2023-03-25T17:52:12;99463.41;;;6.37;100.00
1736;BME280;865;53.672;10.250;2023-03-25T17:54:38;99468.66;;;6.34;100.00
1736;BME280;865;53.672;10.250;2023-03-25T17:57:08;99475.38;;;6.42;100.00
1736;BME280;865;53.672;10.250;2023-03-25T17:59:38;99473.63;;;6.42;100.00
1736;BME280;865;53.672;10.250;2023-03-25T18:02:23;99470.13;;;6.45;100.00
1736;BME280;865;53.672;10.250;2023-03-25T18:04:49;99466.63;;;6.47;100.00
1736;BME280;865;53.672;10.250;2023-03-25T18:07:16;99466.66;;;6.46;100.00
1736;BME280;865;53.672;10.250;2023-03-25T18:09:46;99467.50;;;6.46;100.00
1736;BME280;865;53.672;10.250;2023-03-25T18:12:12;99462.34;;;6.45;100.00
1736;BME280;865;53.672;10.250;2023-03-25T18:14:39;99461.25;;;6.55;100.00
1736;BME280;865;53.672;10.250;2023-03-25T18:17:05;99463.84;;;6.55;100.00
1736;BME280;865;53.672;10.250;2023-03-25T18:19:32;99452.66;;;6.53;100.00
1736;BME280;865;53.672;10.250;2023-03-25T18:21:59;99461.41;;;6.49;100.00
1736;BME280;865;53.672;10.250;2023-03-25T18:24:36;99464.78;;;6.52;100.00
1736;BME280;865;53.672;10.250;2023-03-25T18:27:02;99464.69;;;6.55;100.00
1736;BME280;865;53.672;10.250;2023-03-25T18:29:33;99468.97;;;6.56;100.00
1736;BME280;865;53.672;10.250;2023-03-25T18:32:02;99457.19;;;6.45;100.00
1736;BME280;865;53.672;10.250;2023-03-25T18:34:28;99452.06;;;6.42;100.00
1736;BME280;865;53.672;10.250;2023-03-25T18:36:55;99457.16;;;6.46;100.00
1736;BME280;865;53.672;10.250;2023-03-25T18:39:23;99466.84;;;6.36;100.00
1736;BME280;865;53.672;10.250;2023-03-25T18:44:21;99465.16;;;6.35;100.00
1736;BME280;865;53.672;10.250;2023-03-25T18:46:47;99467.81;;;6.32;100.00
1736;BME280;865;53.672;10.250;2023-03-25T18:49:18;99467.19;;;6.23;100.00
1736;BME280;865;53.672;10.250;2023-03-25T18:51:45;99465.34;;;6.28;100.00
1736;BME280;865;53.672;10.250;2023-03-25T18:54:15;99470.53;;;6.28;100.00
1736;BME280;865;53.672;10.250;2023-03-25T18:56:41;99463.75;;;6.22;100.00
1736;BME280;865;53.672;10.250;2023-03-25T18:59:09;99439.41;;;6.29;100.00
1736;BME280;865;53.672;10.250;2023-03-25T19:01:36;99435.19;;;6.25;100.00
1736;BME280;865;53.672;10.250;2023-03-25T19:04:02;99435.91;;;6.30;100.00
1736;BME280;865;53.672;10.250;2023-03-25T19:06:29;99448.00;;;6.31;100.00
1736;BME280;865;53.672;10.250;2023-03-25T19:08:56;99452.47;;;6.25;100.00
1736;BME280;865;53.672;10.250;2023-03-25T19:11:23;99452.50;;;6.23;100.00
1736;BME280;865;53.672;10.250;2023-03-25T19:13:50;99448.31;;;6.18;100.00
1736;BME280;865;53.672;10.250;2023-03-25T19:16:17;99452.59;;;6.19;100.00
1736;BME280;865;53.672;10.250;2023-03-25T19:18:43;99448.34;;;6.16;100.00
1736;BME280;865;53.672;10.250;2023-03-25T19:21:14;99459.38;;;6.24;100.00
1736;BME280;865;53.672;10.250;2023-03-25T19:23:41;99463.69;;;6.25;100.00
1736;BME280;865;53.672;10.250;2023-03-25T19:26:08;99462.84;;;6.23;100.00
1736;BME280;865;53.672;10.250;2023-03-25T19:28:34;99461.13;;;6.24;100.00
1736;BME280;865;53.672;10.250;2023-03-25T19:31:01;99457.66;;;6.25;100.00
1736;BME280;865;53.672;10.250;2023-03-25T19:33:28;99467.00;;;6.30;100.00
1736;BME280;865;53.672;10.250;2023-03-25T19:35:57;99465.34;;;6.28;100.00
1736;BME280;865;53.672;10.250;2023-03-25T19:38:26;99466.97;;;6.32;100.00
1736;BME280;865;53.672;10.250;2023-03-25T19:41:07;99463.63;;;6.28;100.00
1736;BME280;865;53.672;10.250;2023-03-25T19:43:34;99470.56;;;6.26;100.00
1736;BME280;865;53.672;10.250;2023-03-25T19:46:01;99470.56;;;6.26;100.00
1736;BME280;865;53.672;10.250;2023-03-25T19:48:28;99470.47;;;6.29;100.00
1736;BME280;865;53.672;10.250;2023-03-25T19:50:55;99470.56;;;6.26;100.00
1736;BME280;865;53.672;10.250;2023-03-25T19:53:23;99473.06;;;6.29;100.00
1736;BME280;865;53.672;10.250;2023-03-25T19:55:50;99469.63;;;6.29;100.00
1736;BME280;865;53.672;10.250;2023-03-25T19:58:17;99473.28;;;6.20;100.00
1736;BME280;865;53.672;10.250;2023-03-25T20:00:46;99471.38;;;6.28;100.00
1736;BME280;865;53.672;10.250;2023-03-25T20:03:12;99466.19;;;6.28;100.00
1736;BME280;865;53.672;10.250;2023-03-25T20:05:40;99466.13;;;6.31;100.00
1736;BME280;865;53.672;10.250;2023-03-25T20:08:07;99472.31;;;6.24;100.00
1736;BME280;865;53.672;10.250;2023-03-25T20:10:37;99475.81;;;6.23;100.00
1736;BME280;865;53.672;10.250;2023-03-25T20:13:04;99466.34;;;6.22;100.00
1736;BME280;865;53.672;10.250;2023-03-25T20:15:30;99476.03;;;6.12;100.00
1736;BME280;865;53.672;10.250;2023-03-25T20:17:57;99481.13;;;6.17;100.00
1736;BME280;865;53.672;10.250;2023-03-25T20:20:24;99479.44;;;6.14;100.00
1736;BME280;865;53.672;10.250;2023-03-25T20:22:51;99487.19;;;6.16;100.00
1736;BME280;865;53.672;10.250;2023-03-25T20:25:18;99482.75;;;6.21;100.00
1736;BME280;865;53.672;10.250;2023-03-25T20:27:45;99491.41;;;6.20;100.00
1736;BME280;865;53.672;10.250;2023-03-25T20:30:14;99496.78;;;6.11;100.00
1736;BME280;865;53.672;10.250;2023-03-25T20:32:41;99497.69;;;6.08;100.00
1736;BME280;865;53.672;10.250;2023-03-25T20:35:12;99494.34;;;6.03;100.00
1736;BME280;865;53.672;10.250;2023-03-25T20:37:43;99496.06;;;6.04;100.00
1736;BME280;865;53.672;10.250;2023-03-25T20:40:13;99500.34;;;6.05;100.00
1736;BME280;865;53.672;10.250;2023-03-25T20:42:42;99501.19;;;6.07;100.00
1736;BME280;865;53.672;10.250;2023-03-25T20:45:10;99503.72;;;6.09;100.00
1736;BME280;865;53.672;10.250;2023-03-25T20:47:37;99505.44;;;6.10;100.00
1736;BME280;865;53.672;10.250;2023-03-25T20:50:05;99513.09;;;6.14;100.00
1736;BME280;865;53.672;10.250;2023-03-25T20:52:32;99507.16;;;6.11;100.00
1736;BME280;865;53.672;10.250;2023-03-25T20:54:59;99508.84;;;6.12;100.00
1736;BME280;865;53.672;10.250;2023-03-25T20:57:25;99520.84;;;6.16;100.00
1736;BME280;865;53.672;10.250;2023-03-25T20:59:52;99519.19;;;6.13;100.00
1736;BME280;865;53.672;10.250;2023-03-25T21:02:19;99521.84;;;6.10;100.00
1736;BME280;865;53.672;10.250;2023-03-25T21:04:46;99525.19;;;6.14;100.00
1736;BME280;865;53.672;10.250;2023-03-25T21:07:13;99534.66;;;6.15;100.00
1736;BME280;865;53.672;10.250;2023-03-25T21:09:39;99531.91;;;6.23;100.00
1736;BME280;865;53.672;10.250;2023-03-25T21:12:06;99528.56;;;6.19;100.00
1736;BME280;865;53.672;10.250;2023-03-25T21:14:35;99527.69;;;6.19;100.00
1736;BME280;865;53.672;10.250;2023-03-25T21:17:03;99533.75;;;6.18;100.00
1736;BME280;865;53.672;10.250;2023-03-25T21:19:29;99539.81;;;6.16;100.00
1736;BME280;865;53.672;10.250;2023-03-25T21:21:56;99542.41;;;6.16;100.00
1736;BME280;865;53.672;10.250;2023-03-25T21:24:22;99545.78;;;6.20;100.00
1736;BME280;865;53.672;10.250;2023-03-25T21:26:49;99549.34;;;6.14;100.00
1736;BME280;865;53.672;10.250;2023-03-25T21:29:15;99548.56;;;6.11;100.00
1736;BME280;865;53.672;10.250;2023-03-25T21:31:43;99553.81;;;6.06;100.00
1736;BME280;865;53.672;10.250;2023-03-25T21:34:10;99557.28;;;6.07;100.00
1736;BME280;865;53.672;10.250;2023-03-25T21:36:40;99552.84;;;6.13;100.00
1736;BME280;865;53.672;10.250;2023-03-25T21:39:07;99562.28;;;6.14;100.00
1736;BME280;865;53.672;10.250;2023-03-25T21:41:34;99577.91;;;6.11;100.00
1736;BME280;865;53.672;10.250;2023-03-25T21:44:01;99570.13;;;6.11;100.00
1736;BME280;865;53.672;10.250;2023-03-25T21:46:27;99576.19;;;6.10;100.00
1736;BME280;865;53.672;10.250;2023-03-25T21:48:55;99577.06;;;6.09;100.00
1736;BME280;865;53.672;10.250;2023-03-25T21:51:24;99578.69;;;6.15;100.00
1736;BME280;865;53.672;10.250;2023-03-25T21:53:51;99576.94;;;6.15;100.00
1736;BME280;865;53.672;10.250;2023-03-25T21:56:20;99585.53;;;6.19;100.00
1736;BME280;865;53.672;10.250;2023-03-25T21:58:47;99585.66;;;6.11;100.00
1736;BME280;865;53.672;10.250;2023-03-25T22:01:23;99589.94;;;6.12;100.00
1736;BME280;865;53.672;10.250;2023-03-25T22:03:55;99588.22;;;6.13;100.00
1736;BME280;865;53.672;10.250;2023-03-25T22:06:24;99583.06;;;6.11;100.00
1736;BME280;865;53.672;10.250;2023-03-25T22:08:51;99590.00;;;6.11;100.00
1736;BME280;865;53.672;10.250;2023-03-25T22:11:21;99591.69;;;6.12;100.00
1736;BME280;865;53.672;10.250;2023-03-25T22:13:48;99604.69;;;6.09;100.00
1736;BME280;865;53.672;10.250;2023-03-25T22:16:16;99600.25;;;6.15;100.00
1736;BME280;865;53.672;10.250;2023-03-25T22:18:43;99597.72;;;6.12;100.00
1736;BME280;865;53.672;10.250;2023-03-25T22:21:13;99606.41;;;6.10;100.00
1736;BME280;865;53.672;10.250;2023-03-25T22:23:40;99602.88;;;6.12;100.00
1736;BME280;865;53.672;10.250;2023-03-25T22:26:08;99609.84;;;6.10;100.00
1736;BME280;865;53.672;10.250;2023-03-25T22:28:35;99611.56;;;6.11;100.00
1736;BME280;865;53.672;10.250;2023-03-25T22:31:14;99614.00;;;6.18;100.00
1736;BME280;865;53.672;10.250;2023-03-25T22:33:41;99617.44;;;6.20;100.00
1736;BME280;865;53.672;10.250;2023-03-25T22:36:10;99616.59;;;6.18;100.00
1736;BME280;865;53.672;10.250;2023-03-25T22:38:42;99627.84;;;6.16;100.00
1736;BME280;865;53.672;10.250;2023-03-25T22:41:11;99626.97;;;6.18;100.00
1736;BME280;865;53.672;10.250;2023-03-25T22:43:38;99633.00;;;6.18;100.00
1736;BME280;865;53.672;10.250;2023-03-25T22:46:06;99625.13;;;6.23;100.00
1736;BME280;865;53.672;10.250;2023-03-25T22:48:33;99629.47;;;6.22;100.00
1736;BME280;865;53.672;10.250;2023-03-25T22:51:00;99638.94;;;6.23;100.00
1736;BME280;865;53.672;10.250;2023-03-25T22:53:27;99633.75;;;6.25;100.00
1736;BME280;865;53.672;10.250;2023-03-25T22:55:54;99644.25;;;6.17;100.00
1736;BME280;865;53.672;10.250;2023-03-25T22:58:24;99643.34;;;6.18;100.00
1736;BME280;865;53.672;10.250;2023-03-25T23:00:51;99658.94;;;6.15;100.00
1736;BME280;865;53.672;10.250;2023-03-25T23:03:18;99647.66;;;6.18;100.00
1736;BME280;865;53.672;10.250;2023-03-25T23:05:59;99655.50;;;6.16;100.00
1736;BME280;865;53.672;10.250;2023-03-25T23:08:28;99656.34;;;6.15;100.00
1736;BME280;865;53.672;10.250;2023-03-25T23:10:59;99658.97;;;6.13;100.00
1736;BME280;865;53.672;10.250;2023-03-25T23:13:26;99664.19;;;6.12;100.00
1736;BME280;865;53.672;10.250;2023-03-25T23:16:04;99661.44;;;6.20;100.00
1736;BME280;865;53.672;10.250;2023-03-25T23:18:31;99665.63;;;6.27;100.00
1736;BME280;865;53.672;10.250;2023-03-25T23:20:57;99663.97;;;6.23;100.00
1736;BME280;865;53.672;10.250;2023-03-25T23:23:28;99672.59;;;6.23;100.00
1736;BME280;865;53.672;10.250;2023-03-25T23:26:18;99676.88;;;6.26;100.00
1736;BME280;865;53.672;10.250;2023-03-25T23:28:46;99678.63;;;6.25;100.00
1736;BME280;865;53.672;10.250;2023-03-25T23:31:16;99676.09;;;6.22;100.00
1736;BME280;865;53.672;10.250;2023-03-25T23:33:49;99685.66;;;6.17;100.00
1736;BME280;865;53.672;10.250;2023-03-25T23:36:17;99690.72;;;6.23;100.00
1736;BME280;865;53.672;10.250;2023-03-25T23:38:45;99689.84;;;6.24;100.00
1736;BME280;865;53.672;10.250;2023-03-25T23:41:14;99692.41;;;6.24;100.00
1736;BME280;865;53.672;10.250;2023-03-25T23:43:41;99698.50;;;6.23;100.00
1736;BME280;865;53.672;10.250;2023-03-25T23:46:09;99705.38;;;6.24;100.00
1736;BME280;865;53.672;10.250;2023-03-25T23:48:37;99712.34;;;6.22;100.00